Time;durP1;ratioP1;P1;durP2;ratioP2;P2;SDS_P1;SDS_P2;PMS_P1;PMS_P2;Temp;Humidity;BMP_temperature;BMP_pressure;BME280_temperature;BME280_humidity;BME280_pressure;Samples;Min_cycle;Max_cycle;Signal;HPM_P1;HPM_P2
2024/02/26 05:00:32;;;;;;;4.00;3.80;;;2.10;97.30;;;;;;5960577;23;21228;-86
2024/02/26 05:03:04;;;;;;;4.37;2.30;;;2.10;97.30;;;;;;4952462;28;21032;-85
2024/02/26 05:06:02;;;;;;;10.00;3.20;;;2.10;97.30;;;;;;4952984;28;20198;-87
2024/02/26 05:08:35;;;;;;;3.30;2.73;;;2.00;97.30;;;;;;4953221;28;20833;-90
2024/02/26 05:11:04;;;;;;;15.20;3.00;;;2.00;97.30;;;;;;4948267;29;20455;-91
2024/02/26 05:13:33;;;;;;;4.87;4.63;;;2.10;97.30;;;;;;4934827;29;21100;-89
2024/02/26 05:16:24;;;;;;;3.33;2.50;;;2.10;97.30;;;;;;4942834;29;20459;-91
2024/02/26 05:19:05;;;;;;;6.60;2.37;;;2.10;97.30;;;;;;4945617;29;20459;-88
2024/02/26 05:21:34;;;;;;;2.93;2.73;;;2.10;97.30;;;;;;4953131;29;20439;-90
2024/02/26 05:24:02;;;;;;;4.60;2.40;;;2.10;97.30;;;;;;4954907;29;20508;-88
2024/02/26 05:26:34;;;;;;;4.70;4.40;;;2.10;97.30;;;;;;4955670;29;20424;-85
2024/02/26 05:29:03;;;;;;;3.87;2.63;;;2.10;97.30;;;;;;4955302;29;20450;-89
2024/02/26 05:31:45;;;;;;;4.70;3.37;;;2.10;97.30;;;;;;4954611;29;20432;-86
2024/02/26 05:34:44;;;;;;;4.03;3.03;;;2.10;97.30;;;;;;4951504;29;20463;-86
2024/02/26 05:37:24;;;;;;;7.97;3.63;;;2.10;97.30;;;;;;4952470;28;20533;-85
2024/02/26 05:40:04;;;;;;;1.83;1.73;;;2.10;97.30;;;;;;4942363;29;20455;-87
2024/02/26 05:43:05;;;;;;;4.50;2.90;;;2.10;97.30;;;;;;4940428;29;20503;-85
2024/02/26 05:45:33;;;;;;;6.37;2.27;;;2.20;97.30;;;;;;4932881;29;20522;-87
2024/02/26 05:48:05;;;;;;;3.47;1.77;;;2.20;97.30;;;;;;4935970;29;20426;-87
2024/02/26 05:51:15;;;;;;;2.90;2.70;;;2.20;97.30;;;;;;4936277;29;20419;-86
2024/02/26 05:53:43;;;;;;;2.03;1.90;;;2.20;97.30;;;;;;4880730;29;20967;-86
2024/02/26 05:56:15;;;;;;;1.80;1.70;;;2.20;97.30;;;;;;4927154;29;20473;-86
2024/02/26 05:58:54;;;;;;;3.53;3.33;;;2.20;97.30;;;;;;4934827;29;20435;-87
2024/02/26 06:01:35;;;;;;;2.07;1.93;;;2.10;97.30;;;;;;4930414;29;20467;-85
2024/02/26 06:04:03;;;;;;;4.20;2.77;;;2.10;97.30;;;;;;4931363;29;20447;-86
2024/02/26 06:06:35;;;;;;;1.57;1.47;;;2.00;97.30;;;;;;4934051;29;20428;-87
2024/02/26 06:09:05;;;;;;;2.53;2.37;;;2.00;97.30;;;;;;4933484;29;20423;-88
2024/02/26 06:11:44;;;;;;;2.00;1.90;;;2.00;97.30;;;;;;4933612;29;20454;-86
2024/02/26 06:14:14;;;;;;;1.57;1.53;;;2.00;97.30;;;;;;4933945;29;20430;-86
2024/02/26 06:17:13;;;;;;;2.43;2.23;;;2.00;97.30;;;;;;4936330;29;20970;-86
2024/02/26 06:19:45;;;;;;;3.87;3.20;;;2.00;97.30;;;;;;4935163;29;20424;-87
2024/02/26 06:22:14;;;;;;;2.23;2.03;;;2.00;97.30;;;;;;4939856;29;20447;-84
2024/02/26 06:25:03;;;;;;;5.43;3.80;;;2.00;97.30;;;;;;4945862;29;20426;-84
2024/02/26 06:27:34;;;;;;;3.80;2.83;;;2.00;97.30;;;;;;4930975;29;20428;-85
2024/02/26 06:30:03;;;;;;;4.20;2.57;;;2.00;97.30;;;;;;4936171;29;20534;-86
2024/02/26 06:32:35;;;;;;;2.00;1.90;;;2.00;97.30;;;;;;4934483;29;20443;-85
2024/02/26 06:35:14;;;;;;;3.90;3.70;;;2.00;97.30;;;;;;4935789;28;20466;-87
2024/02/26 06:38:13;;;;;;;4.10;1.83;;;2.00;97.30;;;;;;4935600;29;20448;-86
2024/02/26 06:40:41;;;;;;;4.37;4.10;;;2.10;97.30;;;;;;4933037;29;20439;-86
2024/02/26 06:43:14;;;;;;;2.30;2.10;;;2.20;97.30;;;;;;4934227;29;21001;-86
2024/02/26 06:45:42;;;;;;;4.53;4.23;;;2.20;97.30;;;;;;4933756;28;20447;-85
2024/02/26 06:48:13;;;;;;;2.93;2.20;;;2.30;97.30;;;;;;4934563;29;20420;-85
2024/02/26 06:50:42;;;;;;;5.23;3.33;;;2.30;97.30;;;;;;4934520;29;20514;-84
2024/02/26 06:53:16;;;;;;;1.93;1.63;;;2.40;97.30;;;;;;4935508;29;20499;-85
2024/02/26 06:55:44;;;;;;;2.97;1.73;;;2.40;97.30;;;;;;4934075;29;20558;-88
2024/02/26 06:58:12;;;;;;;1.63;1.53;;;2.50;97.30;;;;;;4933879;29;20865;-87
2024/02/26 07:00:44;;;;;;;3.10;2.47;;;2.60;97.30;;;;;;4933735;29;20436;-86
2024/02/26 07:03:15;;;;;;;6.40;3.10;;;2.60;97.30;;;;;;4933973;29;20419;-88
2024/02/26 07:05:45;;;;;;;4.20;3.00;;;2.70;97.30;;;;;;4934563;29;20423;-86
2024/02/26 07:08:22;;;;;;;2.93;2.07;;;2.80;97.30;;;;;;4935481;29;20416;-85
2024/02/26 07:10:53;;;;;;;1.50;1.40;;;2.90;97.30;;;;;;4934421;29;20584;-87
2024/02/26 07:13:23;;;;;;;4.50;4.20;;;2.90;97.30;;;;;;4936599;29;20517;-86
2024/02/26 07:15:51;;;;;;;2.60;2.10;;;3.00;97.30;;;;;;4943869;28;20995;-87
2024/02/26 07:18:24;;;;;;;5.33;3.67;;;3.10;97.30;;;;;;4929999;29;20419;-87
2024/02/26 07:20:53;;;;;;;3.63;2.63;;;3.10;97.30;;;;;;4937108;29;20424;-86
2024/02/26 07:23:24;;;;;;;3.93;3.37;;;3.20;97.30;;;;;;4930050;29;20514;-84
2024/02/26 07:25:55;;;;;;;7.37;3.43;;;3.30;97.30;;;;;;4934283;29;20420;-86
2024/02/26 07:28:24;;;;;;;6.13;3.30;;;3.40;97.30;;;;;;4930117;29;20438;-86
2024/02/26 07:30:53;;;;;;;4.13;3.27;;;3.40;97.30;;;;;;4934458;29;20448;-86
2024/02/26 07:33:41;;;;;;;16.33;3.20;;;3.50;97.30;;;;;;4931696;29;20860;-86
2024/02/26 07:36:14;;;;;;;1.50;1.40;;;3.70;97.30;;;;;;4936020;29;20475;-86
2024/02/26 07:39:01;;;;;;;3.47;2.13;;;3.80;97.30;;;;;;4938853;29;20419;-85
2024/02/26 07:41:46;;;;;;;7.90;4.50;;;3.90;97.30;;;;;;4937741;28;20440;-86
2024/02/26 07:44:12;;;;;;;3.60;3.37;;;4.10;97.30;;;;;;4937638;29;20442;-87
2024/02/26 07:47:03;;;;;;;1.73;1.67;;;4.20;97.30;;;;;;4937168;29;20436;-86
2024/02/26 07:49:52;;;;;;;8.20;3.53;;;4.30;97.30;;;;;;4934591;29;20220;-88
2024/02/26 07:52:25;;;;;;;8.23;2.90;;;4.40;97.30;;;;;;4933474;29;20451;-87
2024/02/26 07:58:45;;;;;;;1.87;1.77;;;4.60;97.30;;;;;;4938932;29;20809;-86
2024/02/26 08:01:32;;;;;;;;;;;;;;;;;;;;;
2024/02/26 08:04:05;;;;;;;1.93;1.83;;;4.70;97.30;;;;;;4933697;28;20511;-84
2024/02/26 08:06:33;;;;;;;6.70;3.43;;;4.70;97.30;;;;;;4936300;29;20416;-87
2024/02/26 08:09:05;;;;;;;1.70;1.60;;;4.80;97.30;;;;;;4934917;29;20420;-88
2024/02/26 08:11:34;;;;;;;8.13;2.73;;;4.90;97.30;;;;;;4935608;29;20949;-87
2024/02/26 08:14:05;;;;;;;3.80;3.60;;;5.00;97.30;;;;;;4936075;29;20419;-86
2024/02/26 08:16:34;;;;;;;2.90;2.70;;;5.10;97.30;;;;;;4934509;29;20427;-85
2024/02/26 08:19:15;;;;;;;;;;;;;;;;;;;;;
2024/02/26 08:21:41;;;;;;;2.83;2.63;;;5.40;97.30;;;;;;4936667;29;20711;-87
2024/02/26 08:24:14;;;;;;;5.53;2.97;;;5.40;97.30;;;;;;4934893;29;20499;-85
2024/02/26 08:26:42;;;;;;;1.40;1.30;;;5.50;97.30;;;;;;4934721;29;20238;-87
2024/02/26 08:29:14;;;;;;;2.87;1.60;;;5.50;97.30;;;;;;4934963;29;20471;-87
2024/02/26 08:31:45;;;;;;;6.77;3.90;;;5.60;97.30;;;;;;4935047;29;20451;-86
2024/02/26 08:34:15;;;;;;;2.40;1.87;;;5.60;97.30;;;;;;4934121;28;20435;-87
2024/02/26 08:36:44;;;;;;;2.73;2.53;;;5.60;97.30;;;;;;4934148;29;20603;-86
2024/02/26 08:39:13;;;;;;;2.70;2.50;;;5.70;97.30;;;;;;4935777;29;20487;-87
2024/02/26 08:41:54;;;;;;;7.00;4.17;;;5.80;97.30;;;;;;4934882;29;20498;-86
2024/02/26 08:44:23;;;;;;;2.37;2.17;;;5.90;97.30;;;;;;4930845;29;20446;-87
2024/02/26 08:46:51;;;;;;;2.93;2.73;;;6.10;97.30;;;;;;4934136;29;20423;-87
2024/02/26 08:49:23;;;;;;;4.40;2.50;;;6.30;97.30;;;;;;4934809;28;20463;-87
2024/02/26 08:51:48;;;;;;;3.83;3.63;;;6.40;97.30;;;;;;4938356;23;20487;-63
2024/02/26 08:54:14;;;;;;;2.20;2.07;;;6.50;97.30;;;;;;4930548;29;20439;-63
2024/02/26 08:56:39;;;;;;;1.97;1.87;;;6.70;97.30;;;;;;4932319;29;20187;-63
2024/02/26 08:59:05;;;;;;;2.40;2.10;;;6.80;97.30;;;;;;4932884;29;20267;-62
2024/02/26 09:01:33;;;;;;;1.93;1.83;;;7.10;97.30;;;;;;4932192;29;20206;-62
2024/02/26 09:03:59;;;;;;;2.77;2.13;;;7.20;97.30;;;;;;4932341;29;20186;-62
2024/02/26 09:06:24;;;;;;;2.17;2.00;;;7.40;97.30;;;;;;4932330;29;20423;-63
2024/02/26 09:08:50;;;;;;;3.07;1.80;;;7.50;97.30;;;;;;4930932;29;20192;-63
2024/02/26 09:11:16;;;;;;;2.70;2.20;;;7.60;97.30;;;;;;4934454;29;20625;-62
2024/02/26 09:13:42;;;;;;;2.97;2.20;;;7.80;97.30;;;;;;4933090;29;20534;-63
2024/02/26 09:16:08;;;;;;;4.20;2.47;;;8.00;97.30;;;;;;4934285;29;20466;-63
2024/02/26 09:18:33;;;;;;;5.17;2.60;;;8.20;97.30;;;;;;4915337;29;20424;-63
2024/02/26 09:20:59;;;;;;;4.10;2.57;;;8.30;97.30;;;;;;4934052;29;20231;-63
2024/02/26 09:23:24;;;;;;;2.33;2.17;;;8.40;97.30;;;;;;4930768;29;20548;-63
2024/02/26 09:25:50;;;;;;;4.90;2.60;;;8.50;97.30;;;;;;4932587;29;20330;-63
2024/02/26 09:28:17;;;;;;;6.97;1.73;;;8.40;97.30;;;;;;4933025;29;20188;-63
2024/02/26 09:30:45;;;;;;;5.70;3.27;;;8.50;97.30;;;;;;4933226;29;20286;-62
2024/02/26 09:33:11;;;;;;;5.17;3.00;;;8.70;97.30;;;;;;4929552;29;21286;-62
2024/02/26 09:35:37;;;;;;;2.10;1.97;;;8.80;97.30;;;;;;4933174;29;20971;-63
2024/02/26 09:38:02;;;;;;;2.00;1.90;;;8.90;97.30;;;;;;4948430;28;20431;-63
2024/02/26 09:40:28;;;;;;;1.40;1.30;;;9.00;97.30;;;;;;4932952;29;20231;-63
2024/02/26 09:43:00;;;;;;;3.93;2.73;;;9.10;97.30;;;;;;4930144;29;20856;-64
2024/02/26 09:45:28;;;;;;;3.83;3.63;;;9.30;97.30;;;;;;4930309;29;20231;-63
2024/02/26 09:47:55;;;;;;;3.40;2.77;;;9.50;97.30;;;;;;4933897;29;20431;-62
2024/02/26 09:50:22;;;;;;;1.70;1.20;;;9.50;97.30;;;;;;4923706;29;20503;-63
2024/02/26 09:52:49;;;;;;;5.37;2.20;;;9.50;97.30;;;;;;4930337;29;20468;-63
2024/02/26 09:55:14;;;;;;;3.07;2.50;;;9.50;97.30;;;;;;4928809;29;20895;-63
2024/02/26 09:57:45;;;;;;;6.50;2.53;;;9.60;97.30;;;;;;4938116;29;20427;-63
2024/02/26 10:00:16;;;;;;;6.20;2.33;;;9.70;97.30;;;;;;4961974;28;20207;-63
2024/02/26 10:02:44;;;;;;;2.70;2.33;;;9.80;97.30;;;;;;4930908;29;20470;-63
2024/02/26 10:05:12;;;;;;;2.97;2.77;;;10.00;97.30;;;;;;4939146;29;20424;-62
2024/02/26 10:07:38;;;;;;;1.40;1.33;;;10.00;97.30;;;;;;4932337;29;20446;-62
2024/02/26 10:10:04;;;;;;;3.70;1.80;;;10.10;97.30;;;;;;4938531;29;20928;-62
2024/02/26 10:12:31;;;;;;;3.73;2.37;;;10.20;97.30;;;;;;4931692;29;20190;-62
2024/02/26 10:14:56;;;;;;;2.40;1.73;;;10.30;97.30;;;;;;4931946;29;20839;-62
2024/02/26 10:17:22;;;;;;;1.80;1.43;;;10.50;97.30;;;;;;4930925;29;20915;-62
2024/02/26 10:19:47;;;;;;;2.03;1.90;;;10.60;97.30;;;;;;4950524;28;20190;-62
2024/02/26 10:22:13;;;;;;;8.20;3.27;;;10.70;97.30;;;;;;4937450;28;20210;-62
2024/02/26 10:24:38;;;;;;;2.77;2.63;;;10.60;97.30;;;;;;4953201;28;20182;-63
2024/02/26 10:27:05;;;;;;;3.53;2.77;;;10.70;97.30;;;;;;4933809;29;20660;-62
2024/02/26 10:29:31;;;;;;;2.60;2.17;;;10.70;97.30;;;;;;4935661;29;20669;-62
2024/02/26 10:31:57;;;;;;;2.43;2.23;;;10.70;97.30;;;;;;4932077;29;20497;-62
2024/02/26 10:34:23;;;;;;;10.90;2.10;;;10.70;97.30;;;;;;4930238;29;21002;-63
2024/02/26 10:36:49;;;;;;;5.00;4.07;;;10.80;97.30;;;;;;4933077;29;20782;-62
2024/02/26 10:39:15;;;;;;;2.53;2.30;;;10.80;97.30;;;;;;4932064;29;20199;-62
2024/02/26 10:41:42;;;;;;;3.10;2.10;;;10.80;97.30;;;;;;4930699;29;20451;-62
2024/02/26 10:44:12;;;;;;;1.97;1.87;;;10.80;97.30;;;;;;4929367;29;20423;-62
2024/02/26 10:46:39;;;;;;;1.27;1.20;;;10.80;97.30;;;;;;4926564;29;20424;-62
2024/02/26 10:49:08;;;;;;;2.47;2.03;;;10.70;97.30;;;;;;4932859;29;20425;-62
2024/02/26 10:51:37;;;;;;;4.67;2.30;;;10.60;97.30;;;;;;4930710;29;20557;-62
2024/02/26 10:54:07;;;;;;;9.00;2.57;;;10.60;97.30;;;;;;4931516;29;20803;-62
2024/02/26 10:56:34;;;;;;;2.63;2.43;;;10.60;97.30;;;;;;4936205;29;20439;-62
2024/02/26 10:59:00;;;;;;;1.83;1.33;;;10.50;97.30;;;;;;4930092;29;20932;-62
2024/02/26 11:01:29;;;;;;;2.03;1.90;;;10.50;97.30;;;;;;4930627;29;20525;-62
2024/02/26 11:03:55;;;;;;;3.60;2.57;;;10.40;97.30;;;;;;4931811;29;20176;-64
2024/02/26 11:06:26;;;;;;;2.00;1.77;;;10.40;97.30;;;;;;4929606;29;20471;-62
2024/02/26 11:08:53;;;;;;;7.20;3.13;;;10.40;97.30;;;;;;4929732;29;20422;-62
2024/02/26 11:11:20;;;;;;;2.20;1.73;;;10.60;97.30;;;;;;4944631;28;20443;-62
2024/02/26 11:13:50;;;;;;;6.83;3.00;;;10.70;97.30;;;;;;4944057;29;20847;-62
2024/02/26 11:16:18;;;;;;;9.10;2.43;;;10.70;97.30;;;;;;4936381;29;20546;-62
2024/02/26 11:18:45;;;;;;;2.30;1.83;;;10.60;97.30;;;;;;4941007;29;20427;-62
2024/02/26 11:21:15;;;;;;;1.93;1.60;;;10.70;97.30;;;;;;4941044;28;20506;-62
2024/02/26 11:23:41;;;;;;;5.00;2.40;;;10.80;97.30;;;;;;4941641;29;20473;-62
2024/02/26 11:26:08;;;;;;;4.77;2.70;;;10.80;97.30;;;;;;4942517;29;20427;-62
2024/02/26 11:28:38;;;;;;;8.03;3.33;;;10.80;97.30;;;;;;4947091;29;20640;-62
2024/02/26 11:31:05;;;;;;;3.47;2.50;;;10.80;97.30;;;;;;4945501;28;20442;-62
2024/02/26 11:33:30;;;;;;;2.57;2.37;;;10.90;97.30;;;;;;4939560;28;20419;-62
2024/02/26 11:35:56;;;;;;;4.13;3.17;;;11.00;97.30;;;;;;4941709;29;21077;-62
2024/02/26 11:38:25;;;;;;;2.80;2.53;;;11.10;97.30;;;;;;4940695;29;20204;-62
2024/02/26 11:40:52;;;;;;;6.47;3.40;;;11.00;97.30;;;;;;4933062;29;20210;-62
2024/02/26 11:43:22;;;;;;;2.40;2.00;;;11.00;97.30;;;;;;4932735;29;20443;-62
2024/02/26 11:45:51;;;;;;;2.50;2.40;;;11.00;97.30;;;;;;4940777;29;20443;-62
2024/02/26 11:48:21;;;;;;;2.57;2.37;;;11.00;97.30;;;;;;4933859;29;20455;-62
2024/02/26 11:50:58;;;;;;;5.13;3.77;;;11.00;97.30;;;;;;4932659;29;20578;-62
2024/02/26 11:53:34;;;;;;;6.40;4.03;;;11.10;97.30;;;;;;4927348;29;20420;-62
2024/02/26 11:56:16;;;;;;;4.13;3.30;;;11.10;97.30;;;;;;4932316;29;20474;-62
2024/02/26 11:58:42;;;;;;;4.63;2.67;;;11.20;97.30;;;;;;4933510;29;20442;-62
2024/02/26 12:01:39;;;;;;;4.90;3.50;;;11.20;97.30;;;;;;4933564;29;20580;-62
2024/02/26 12:04:06;;;;;;;3.20;2.50;;;11.30;97.30;;;;;;4932050;29;20267;-62
2024/02/26 12:06:41;;;;;;;2.40;2.10;;;11.40;97.30;;;;;;4932076;29;20823;-62
2024/02/26 12:09:08;;;;;;;1.67;1.63;;;11.40;97.30;;;;;;4932245;29;20415;-62
2024/02/26 12:11:38;;;;;;;3.37;2.03;;;11.40;97.30;;;;;;4931483;29;20494;-62
2024/02/26 12:14:05;;;;;;;2.27;2.10;;;11.30;97.30;;;;;;4934402;29;20798;-62
2024/02/26 12:16:42;;;;;;;3.20;2.23;;;11.30;97.30;;;;;;4938084;29;20534;-62
2024/02/26 12:19:09;;;;;;;1.83;1.80;;;11.30;97.30;;;;;;4932447;29;20430;-62
2024/02/26 12:21:36;;;;;;;3.57;2.97;;;11.30;97.30;;;;;;4956190;23;21065;-68
2024/02/26 12:24:15;;;;;;;2.50;2.30;;;11.40;97.30;;;;;;4960733;28;20533;-68
2024/02/26 12:26:41;;;;;;;2.43;2.27;;;11.40;97.30;;;;;;4955659;28;20446;-68
2024/02/26 12:29:08;;;;;;;3.40;3.20;;;11.40;97.30;;;;;;4959184;28;20418;-68
2024/02/26 12:31:34;;;;;;;1.53;1.33;;;11.40;97.30;;;;;;4940724;28;20452;-67
2024/02/26 12:34:03;;;;;;;2.33;2.17;;;11.40;97.30;;;;;;4932321;29;20444;-68
2024/02/26 12:36:29;;;;;;;3.67;3.07;;;11.40;97.30;;;;;;4943128;29;20290;-68
2024/02/26 12:38:55;;;;;;;10.30;4.30;;;11.50;97.30;;;;;;4933883;29;20527;-67
2024/02/26 12:41:22;;;;;;;1.63;1.53;;;11.40;97.30;;;;;;4946004;28;20891;-67
2024/02/26 12:43:47;;;;;;;2.73;2.37;;;11.40;97.30;;;;;;4931977;29;20427;-68
2024/02/26 12:46:15;;;;;;;2.63;2.20;;;11.40;97.30;;;;;;4941036;29;20424;-67
2024/02/26 12:48:42;;;;;;;4.10;3.77;;;11.40;97.30;;;;;;4928821;29;20279;-68
2024/02/26 12:51:10;;;;;;;2.90;1.23;;;11.40;97.30;;;;;;4932393;29;20439;-67
2024/02/26 12:53:35;;;;;;;3.23;1.60;;;11.40;97.30;;;;;;4933186;29;20507;-67
2024/02/26 12:56:03;;;;;;;1.70;1.60;;;11.50;97.30;;;;;;4940757;29;20910;-68
2024/02/26 12:58:30;;;;;;;4.57;2.77;;;11.50;97.10;;;;;;4951127;29;20179;-67
2024/02/26 13:00:56;;;;;;;2.93;2.73;;;11.60;96.80;;;;;;4935591;29;20440;-67
2024/02/26 13:03:23;;;;;;;6.53;2.23;;;11.50;96.60;;;;;;4944987;29;20461;-68
2024/02/26 13:05:50;;;;;;;1.40;1.30;;;11.50;96.70;;;;;;4944140;28;20489;-67
2024/02/26 13:08:20;;;;;;;4.23;2.37;;;11.50;96.60;;;;;;4936361;29;20419;-67
2024/02/26 13:10:46;;;;;;;2.60;2.40;;;11.50;96.80;;;;;;4952212;28;20430;-68
2024/02/26 13:13:16;;;;;;;6.93;3.90;;;11.60;96.90;;;;;;4936307;29;20420;-68
2024/02/26 13:15:41;;;;;;;1.67;1.53;;;11.60;96.60;;;;;;4934537;29;20456;-68
2024/02/26 13:18:11;;;;;;;2.43;2.23;;;11.80;96.90;;;;;;4932879;29;20420;-67
2024/02/26 13:20:37;;;;;;;2.27;1.80;;;12.00;96.50;;;;;;4936844;28;20207;-68
2024/02/26 13:23:04;;;;;;;8.07;2.17;;;12.00;96.20;;;;;;4933662;29;20442;-68
2024/02/26 13:25:30;;;;;;;3.77;3.60;;;12.00;95.90;;;;;;4944284;29;20737;-66
2024/02/26 13:28:09;;;;;;;2.77;1.87;;;12.00;96.20;;;;;;4935194;29;20420;-68
2024/02/26 13:30:35;;;;;;;2.90;2.10;;;11.80;95.80;;;;;;4932647;29;20234;-68
2024/02/26 13:33:09;;;;;;;2.03;1.83;;;11.80;95.90;;;;;;4938824;29;20488;-67
2024/02/26 13:35:35;;;;;;;1.70;1.60;;;11.80;96.00;;;;;;4937848;29;20466;-67
2024/02/26 13:38:00;;;;;;;2.13;1.97;;;11.80;96.30;;;;;;4935664;28;20519;-68
2024/02/26 13:40:26;;;;;;;1.37;1.30;;;11.90;96.50;;;;;;4947462;29;20225;-68
2024/02/26 13:42:52;;;;;;;2.97;1.83;;;11.90;95.90;;;;;;4930921;29;20241;-67
2024/02/26 13:45:18;;;;;;;1.87;1.77;;;11.90;95.40;;;;;;4938887;29;20203;-68
2024/02/26 13:47:44;;;;;;;1.93;1.83;;;11.90;94.90;;;;;;4931553;29;20760;-68
2024/02/26 13:50:09;;;;;;;3.83;3.17;;;11.90;95.20;;;;;;4930603;29;20184;-67
2024/02/26 13:52:35;;;;;;;2.10;1.63;;;12.00;95.20;;;;;;4928401;29;20483;-67
2024/02/26 13:55:02;;;;;;;1.63;1.53;;;12.10;95.00;;;;;;4930326;29;20700;-68
2024/02/26 13:57:28;;;;;;;3.57;3.03;;;12.10;94.40;;;;;;4931965;29;20167;-67
2024/02/26 13:59:54;;;;;;;1.10;1.00;;;12.20;94.50;;;;;;4932127;29;20471;-66
2024/02/26 14:02:20;;;;;;;3.13;2.03;;;12.20;94.70;;;;;;4934875;29;20491;-68
2024/02/26 14:04:46;;;;;;;2.40;2.20;;;12.30;94.70;;;;;;4943347;29;20563;-68
2024/02/26 14:07:12;;;;;;;2.70;2.03;;;12.30;94.20;;;;;;4949624;29;20183;-67
2024/02/26 14:09:38;;;;;;;3.77;2.20;;;12.30;94.50;;;;;;4936199;29;20427;-67
2024/02/26 14:12:04;;;;;;;2.20;1.70;;;12.40;94.50;;;;;;4931067;29;20455;-68
2024/02/26 14:14:32;;;;;;;4.87;3.23;;;12.50;94.90;;;;;;4945424;29;20684;-68
2024/02/26 14:16:58;;;;;;;6.67;3.10;;;12.60;94.50;;;;;;4930305;29;20921;-68
2024/02/26 14:19:24;;;;;;;2.73;2.20;;;12.50;94.80;;;;;;4933948;29;20974;-68
2024/02/26 14:21:49;;;;;;;2.13;1.97;;;12.40;95.40;;;;;;4935842;29;20570;-67
2024/02/26 14:24:15;;;;;;;3.80;2.00;;;12.50;96.10;;;;;;4934104;29;20192;-67
2024/02/26 14:26:41;;;;;;;2.90;2.57;;;12.40;96.20;;;;;;4943854;29;20187;-68
2024/02/26 14:29:07;;;;;;;4.77;4.30;;;12.40;96.10;;;;;;4940419;29;20914;-68
2024/02/26 14:31:33;;;;;;;3.10;2.90;;;12.40;96.10;;;;;;4938070;28;20207;-68
2024/02/26 14:33:58;;;;;;;2.70;2.50;;;12.50;96.30;;;;;;4939200;29;20187;-67
2024/02/26 14:36:24;;;;;;;6.73;3.50;;;12.60;96.20;;;;;;4934608;29;20647;-67
2024/02/26 14:38:50;;;;;;;4.20;2.03;;;12.70;96.30;;;;;;4933391;28;20207;-67
2024/02/26 14:41:16;;;;;;;7.13;3.23;;;12.70;95.70;;;;;;4937409;29;20243;-67
2024/02/26 14:43:42;;;;;;;5.47;3.17;;;12.70;95.90;;;;;;4929864;29;20982;-68
2024/02/26 14:46:07;;;;;;;3.10;2.90;;;12.90;95.80;;;;;;4941169;29;20270;-68
2024/02/26 14:48:33;;;;;;;10.70;3.03;;;12.70;95.60;;;;;;4949978;28;20202;-67
2024/02/26 14:50:59;;;;;;;6.70;1.93;;;12.50;95.70;;;;;;4934033;29;20246;-67
2024/02/26 14:53:25;;;;;;;2.77;1.53;;;12.60;95.90;;;;;;4944894;29;20182;-68
2024/02/26 14:55:51;;;;;;;2.90;2.07;;;12.50;95.90;;;;;;4939516;28;20466;-68
2024/02/26 14:58:17;;;;;;;20.77;2.63;;;12.30;96.10;;;;;;4952866;29;20175;-68
2024/02/26 15:00:42;;;;;;;5.03;2.43;;;12.20;96.50;;;;;;4948928;28;20207;-68
2024/02/26 15:03:08;;;;;;;9.73;4.10;;;12.00;96.80;;;;;;4933397;29;20437;-66
2024/02/26 15:05:34;;;;;;;4.60;2.47;;;11.90;97.20;;;;;;4947216;29;20194;-68
2024/02/26 15:07:59;;;;;;;8.57;2.70;;;11.80;97.30;;;;;;4945831;28;20431;-68
2024/02/26 15:10:25;;;;;;;2.80;1.97;;;11.70;97.30;;;;;;4936386;28;20253;-67
2024/02/26 15:12:56;;;;;;;3.00;2.23;;;11.60;97.30;;;;;;4946052;29;20176;-68
2024/02/26 15:15:21;;;;;;;1.90;1.40;;;11.50;97.30;;;;;;4933479;29;20471;-68
2024/02/26 15:17:49;;;;;;;3.10;2.90;;;11.50;97.30;;;;;;4939409;29;20522;-68
2024/02/26 15:20:14;;;;;;;2.27;2.07;;;11.40;97.30;;;;;;4943928;28;20179;-68
2024/02/26 15:22:40;;;;;;;3.50;1.97;;;11.40;97.30;;;;;;4937713;29;20466;-67
2024/02/26 15:25:07;;;;;;;2.90;2.40;;;11.20;97.30;;;;;;4934400;29;20183;-68
2024/02/26 15:27:32;;;;;;;3.00;2.80;;;11.20;97.30;;;;;;4941212;29;20202;-68
2024/02/26 15:29:59;;;;;;;4.77;2.10;;;11.20;97.30;;;;;;4941660;29;20431;-68
2024/02/26 15:32:26;;;;;;;3.67;2.30;;;11.20;97.30;;;;;;4943963;28;20207;-68
2024/02/26 15:34:52;;;;;;;3.00;2.60;;;11.10;97.30;;;;;;4945964;28;20478;-68
2024/02/26 15:37:18;;;;;;;6.17;2.60;;;11.10;97.30;;;;;;4938961;29;20679;-68
2024/02/26 15:39:45;;;;;;;6.10;2.53;;;11.10;97.30;;;;;;4939736;29;20600;-68
2024/02/26 15:42:10;;;;;;;4.07;2.70;;;11.10;97.30;;;;;;4944447;29;20870;-69
2024/02/26 15:44:38;;;;;;;2.83;2.30;;;11.00;97.30;;;;;;4930555;29;20850;-69
2024/02/26 15:47:05;;;;;;;2.53;2.30;;;11.00;97.30;;;;;;4938806;29;20180;-66
2024/02/26 15:49:30;;;;;;;4.57;3.20;;;10.90;97.30;;;;;;4932639;29;20434;-66
2024/02/26 15:51:56;;;;;;;2.20;2.07;;;10.80;97.30;;;;;;4933404;29;20435;-66
2024/02/26 15:54:21;;;;;;;2.20;1.87;;;10.80;97.30;;;;;;4946877;29;20216;-66
2024/02/26 15:56:47;;;;;;;5.00;4.70;;;10.70;97.30;;;;;;4943292;28;20184;-66
2024/02/26 15:59:12;;;;;;;3.57;2.47;;;10.70;97.30;;;;;;4937390;29;20655;-66
2024/02/26 16:01:39;;;;;;;6.70;4.73;;;10.60;97.30;;;;;;4941987;29;20245;-66
2024/02/26 16:04:04;;;;;;;3.17;2.40;;;10.50;97.30;;;;;;4936008;29;20198;-66
2024/02/26 16:06:39;;;;;;;3.90;2.40;;;10.50;97.30;;;;;;4935248;29;20428;-66
2024/02/26 16:09:05;;;;;;;3.07;2.57;;;10.40;97.30;;;;;;4935552;29;20186;-66
2024/02/26 16:11:30;;;;;;;3.67;1.83;;;10.40;97.30;;;;;;4943859;29;20451;-66
2024/02/26 16:14:33;;;;;;;3.60;2.53;;;10.30;97.30;;;;;;4935189;28;20187;-66
2024/02/26 16:17:10;;;;;;;2.30;1.67;;;10.30;97.30;;;;;;4947978;29;20183;-66
2024/02/26 16:19:36;;;;;;;4.90;2.70;;;10.20;97.30;;;;;;4937650;29;20418;-66
2024/02/26 16:22:01;;;;;;;7.70;2.53;;;10.10;97.30;;;;;;4935450;28;20502;-67
2024/02/26 16:24:27;;;;;;;5.63;4.90;;;10.10;97.30;;;;;;4935270;29;20201;-66
2024/02/26 16:26:53;;;;;;;4.03;3.80;;;10.00;97.30;;;;;;4942811;28;20187;-66
2024/02/26 16:29:18;;;;;;;4.03;2.70;;;10.00;97.30;;;;;;4946532;28;20436;-66
2024/02/26 16:31:44;;;;;;;8.23;3.93;;;10.00;97.30;;;;;;4941208;29;20223;-66
2024/02/26 16:34:09;;;;;;;5.60;3.10;;;9.90;97.30;;;;;;4935878;28;20194;-66
2024/02/26 16:36:35;;;;;;;3.83;2.40;;;9.90;97.30;;;;;;4947048;29;20215;-66
2024/02/26 16:39:00;;;;;;;2.23;2.00;;;9.80;97.30;;;;;;4939012;29;20279;-66
2024/02/26 16:41:26;;;;;;;3.13;2.50;;;9.80;97.30;;;;;;4937526;29;20240;-66
2024/02/26 16:43:51;;;;;;;10.57;3.20;;;9.70;97.30;;;;;;4939071;29;20207;-66
2024/02/26 16:46:18;;;;;;;4.13;3.90;;;9.70;97.30;;;;;;4943009;29;20188;-66
2024/02/26 16:48:43;;;;;;;3.23;3.03;;;9.60;97.30;;;;;;4933259;29;20415;-66
2024/02/26 16:51:09;;;;;;;4.33;2.50;;;9.60;97.30;;;;;;4932892;29;20443;-66
2024/02/26 16:53:35;;;;;;;9.47;2.90;;;9.60;97.30;;;;;;4926996;29;20891;-66
2024/02/26 16:56:01;;;;;;;2.70;2.50;;;9.50;97.30;;;;;;4931753;29;20263;-66
2024/02/26 16:58:27;;;;;;;8.83;3.53;;;9.50;97.30;;;;;;4931488;29;20207;-66
2024/02/26 17:00:53;;;;;;;7.63;2.97;;;9.50;97.30;;;;;;4944448;29;20438;-66
2024/02/26 17:03:18;;;;;;;10.57;5.43;;;9.50;97.30;;;;;;4931130;29;20435;-66
2024/02/26 17:05:44;;;;;;;6.90;3.17;;;9.40;97.30;;;;;;4936011;29;20556;-66
2024/02/26 17:08:10;;;;;;;2.33;2.13;;;9.40;97.30;;;;;;4938424;29;20715;-66
2024/02/26 17:10:36;;;;;;;9.20;4.03;;;9.40;97.30;;;;;;4940561;29;20218;-66
2024/02/26 17:13:02;;;;;;;3.43;2.50;;;9.40;97.30;;;;;;4933822;29;20196;-66
2024/02/26 17:15:28;;;;;;;7.47;3.07;;;9.30;97.30;;;;;;4945908;29;20510;-66
2024/02/26 17:17:53;;;;;;;7.30;3.40;;;9.30;97.30;;;;;;4946007;29;20242;-66
2024/02/26 17:20:20;;;;;;;3.63;2.57;;;9.30;97.30;;;;;;4931976;28;20192;-66
2024/02/26 17:22:46;;;;;;;4.00;2.47;;;9.20;97.30;;;;;;4930719;29;20656;-66
2024/02/26 17:25:13;;;;;;;5.23;3.57;;;9.20;97.30;;;;;;4931804;29;20468;-66
2024/02/26 17:27:39;;;;;;;7.50;2.23;;;9.20;97.30;;;;;;4933369;29;20667;-66
2024/02/26 17:30:06;;;;;;;16.07;4.53;;;9.20;97.30;;;;;;4930844;29;20420;-66
2024/02/26 17:32:32;;;;;;;4.30;2.77;;;9.10;97.30;;;;;;4931826;29;20263;-66
2024/02/26 17:34:57;;;;;;;3.93;2.53;;;9.10;97.30;;;;;;4942804;29;20841;-66
2024/02/26 17:37:23;;;;;;;3.13;2.70;;;9.10;97.30;;;;;;4938118;29;20184;-66
2024/02/26 17:39:48;;;;;;;3.30;3.10;;;9.10;97.30;;;;;;4937679;29;20674;-66
2024/02/26 17:42:15;;;;;;;2.23;2.03;;;9.00;97.30;;;;;;4940203;29;20586;-66
2024/02/26 17:44:42;;;;;;;7.27;3.60;;;9.00;97.30;;;;;;4931754;29;20262;-66
2024/02/26 17:47:08;;;;;;;5.10;4.10;;;9.00;97.30;;;;;;4942991;29;20427;-66
2024/02/26 17:49:33;;;;;;;3.33;3.00;;;9.00;97.30;;;;;;4935747;29;20479;-66
2024/02/26 17:51:59;;;;;;;4.53;3.13;;;9.00;97.30;;;;;;4931751;29;20204;-66
2024/02/26 17:54:24;;;;;;;13.83;5.17;;;8.90;97.30;;;;;;4935850;29;20194;-66
2024/02/26 17:56:51;;;;;;;6.00;2.00;;;8.90;97.30;;;;;;4935367;29;20178;-66
2024/02/26 17:59:17;;;;;;;4.33;2.90;;;8.80;97.30;;;;;;4924768;29;20731;-66
2024/02/26 18:01:43;;;;;;;4.07;2.80;;;8.80;97.30;;;;;;4935443;29;20479;-66
2024/02/26 18:04:08;;;;;;;2.40;2.20;;;8.80;97.30;;;;;;4930876;29;20698;-66
2024/02/26 18:06:34;;;;;;;3.33;2.63;;;8.80;97.30;;;;;;4935769;29;20191;-66